createdAt,value
2019-03-19T00:00:00.375Z,50.34
2019-03-19T00:01:09.884Z,50.25
2019-03-19T00:02:17.892Z,50.19
2019-03-19T00:03:26.098Z,50.30
2019-03-19T00:04:34.277Z,50.30
2019-03-19T00:05:42.568Z,50.40
2019-03-19T00:06:50.570Z,50.47
2019-03-19T00:07:58.694Z,50.48
2019-03-19T00:09:08.177Z,50.53
2019-03-19T00:10:16.235Z,50.61
2019-03-19T00:11:24.002Z,50.63
2019-03-19T00:12:32.123Z,50.71
2019-03-19T00:13:39.940Z,51.08
2019-03-19T00:14:47.945Z,51.02
2019-03-19T00:15:56.153Z,51.24
2019-03-19T00:17:04.358Z,51.13
2019-03-19T00:18:12.471Z,51.27
2019-03-19T00:19:22.457Z,51.28
2019-03-19T00:20:30.014Z,51.19
2019-03-19T00:21:37.869Z,51.18
2019-03-19T00:22:46.537Z,51.12
2019-03-19T00:23:54.647Z,51.20
2019-03-19T00:25:02.555Z,50.95
2019-03-19T00:26:10.614Z,51.23
2019-03-19T00:27:18.649Z,51.31
2019-03-19T00:28:26.552Z,51.15
2019-03-19T00:29:34.391Z,51.19
2019-03-19T00:30:42.525Z,51.20
2019-03-19T00:31:50.661Z,51.38
2019-03-19T00:32:58.595Z,51.39
2019-03-19T00:34:06.407Z,51.27
2019-03-19T00:35:14.645Z,51.33
2019-03-19T00:36:22.549Z,51.41
2019-03-19T00:37:30.392Z,51.49
2019-03-19T00:38:38.628Z,51.62
2019-03-19T00:39:46.720Z,51.38
2019-03-19T00:40:54.566Z,51.53
2019-03-19T00:42:02.496Z,51.54
2019-03-19T00:43:10.508Z,51.50
2019-03-19T00:44:18.338Z,51.47
2019-03-19T00:45:26.687Z,51.20
2019-03-19T00:46:35.017Z,51.07
2019-03-19T00:47:43.293Z,51.01
2019-03-19T00:48:51.295Z,50.81
2019-03-19T00:49:59.261Z,50.84
2019-03-19T00:51:07.033Z,50.75
2019-03-19T00:52:15.062Z,50.84
2019-03-19T00:53:22.881Z,50.89
2019-03-19T00:54:30.949Z,50.87
2019-03-19T00:55:40.924Z,51.02
2019-03-19T00:56:48.685Z,50.86
2019-03-19T00:57:56.588Z,50.74
2019-03-19T00:59:04.412Z,50.85
2019-03-19T01:00:22.040Z,50.79
2019-03-19T01:01:30.084Z,50.83
2019-03-19T01:02:37.751Z,50.65
2019-03-19T01:03:45.536Z,50.74
2019-03-19T01:04:53.571Z,50.96
2019-03-19T01:06:01.674Z,50.99
2019-03-19T01:07:09.709Z,51.09
2019-03-19T01:08:17.633Z,50.95
2019-03-19T01:09:25.623Z,51.10
2019-03-19T01:10:33.648Z,51.11
2019-03-19T01:11:41.412Z,51.02
2019-03-19T01:12:49.916Z,51.05
2019-03-19T01:13:57.932Z,51.22
2019-03-19T01:15:10.004Z,51.18
2019-03-19T01:16:17.896Z,51.37
2019-03-19T01:17:25.708Z,51.43
2019-03-19T01:18:33.462Z,51.36
2019-03-19T01:19:41.470Z,51.32
2019-03-19T01:20:49.502Z,51.31
2019-03-19T01:21:57.562Z,51.37
2019-03-19T01:23:05.762Z,51.43
2019-03-19T01:24:13.605Z,51.48
2019-03-19T01:25:21.409Z,51.42
2019-03-19T01:26:29.659Z,51.44
2019-03-19T01:27:37.661Z,51.55
2019-03-19T01:28:45.421Z,51.50
2019-03-19T01:29:53.810Z,51.70
2019-03-19T01:31:01.686Z,51.64
2019-03-19T01:32:09.708Z,51.75
2019-03-19T01:33:17.928Z,51.71
2019-03-19T01:34:25.812Z,51.77
2019-03-19T01:35:34.109Z,51.78
2019-03-19T01:36:42.100Z,51.82
2019-03-19T01:37:49.988Z,51.74
2019-03-19T01:38:58.173Z,51.70
2019-03-19T01:40:10.094Z,51.61
2019-03-19T01:41:17.873Z,51.67
2019-03-19T01:42:25.972Z,51.81
2019-03-19T01:43:33.846Z,51.84
2019-03-19T01:44:42.085Z,51.97
2019-03-19T01:45:49.944Z,52.02
2019-03-19T01:46:58.277Z,52.07
2019-03-19T01:48:06.671Z,52.18
2019-03-19T01:49:14.660Z,52.38
2019-03-19T01:50:22.752Z,52.49
2019-03-19T01:51:30.645Z,52.46
2019-03-19T01:52:38.720Z,52.39
2019-03-19T01:53:46.528Z,52.43
2019-03-19T01:54:54.610Z,52.45
2019-03-19T01:56:05.407Z,52.30
2019-03-19T01:57:12.113Z,52.40
2019-03-19T01:58:20.019Z,52.33
2019-03-19T01:59:27.895Z,52.18
2019-03-19T02:00:35.823Z,52.01
2019-03-19T02:01:43.785Z,51.81
2019-03-19T02:02:51.937Z,51.84
2019-03-19T02:03:59.900Z,51.60
2019-03-19T02:05:08.342Z,51.80
2019-03-19T02:06:16.187Z,51.84
2019-03-19T02:07:23.898Z,51.82
2019-03-19T02:08:31.909Z,51.66
2019-03-19T02:09:39.912Z,51.55
2019-03-19T02:10:47.979Z,51.42
2019-03-19T02:11:55.859Z,51.39
2019-03-19T02:13:04.011Z,51.25
2019-03-19T02:14:11.759Z,51.22
2019-03-19T02:15:20.222Z,51.13
2019-03-19T02:16:28.036Z,51.09
2019-03-19T02:17:36.026Z,51.08
2019-03-19T02:18:44.452Z,51.02
2019-03-19T02:19:52.498Z,51.00
2019-03-19T02:21:00.313Z,51.04
2019-03-19T02:22:08.330Z,51.14
2019-03-19T02:23:16.202Z,51.29
2019-03-19T02:24:24.204Z,51.20
2019-03-19T02:25:32.191Z,51.26
2019-03-19T02:26:40.908Z,51.25
2019-03-19T02:27:48.536Z,51.20
2019-03-19T02:28:56.653Z,51.14
2019-03-19T02:30:07.021Z,51.18
2019-03-19T02:31:15.120Z,51.23
2019-03-19T02:32:23.379Z,51.31
2019-03-19T02:33:31.483Z,51.18
2019-03-19T02:34:39.585Z,51.10
2019-03-19T02:35:48.310Z,51.18
2019-03-19T02:36:56.378Z,51.24
2019-03-19T02:38:04.485Z,51.24
2019-03-19T02:39:12.214Z,51.20
2019-03-19T02:40:20.454Z,51.18
2019-03-19T02:41:28.558Z,51.21
2019-03-19T02:42:36.658Z,51.22
2019-03-19T02:43:44.621Z,51.18
2019-03-19T02:44:52.459Z,51.23
2019-03-19T02:46:00.326Z,51.15
2019-03-19T02:47:08.232Z,51.17
2019-03-19T02:48:16.107Z,51.13
2019-03-19T02:49:23.833Z,51.13
2019-03-19T02:50:31.583Z,51.15
2019-03-19T02:51:39.485Z,51.17
2019-03-19T02:52:47.446Z,51.13
2019-03-19T02:53:55.476Z,51.21
2019-03-19T02:55:03.580Z,51.30
2019-03-19T02:56:11.558Z,51.37
2019-03-19T02:57:19.265Z,51.38
2019-03-19T02:58:27.059Z,51.49
2019-03-19T02:59:34.880Z,51.45
2019-03-19T03:00:42.641Z,51.59
2019-03-19T03:01:50.506Z,51.58
2019-03-19T03:02:58.322Z,51.85
2019-03-19T03:04:07.706Z,52.08
2019-03-19T03:05:18.525Z,52.23
2019-03-19T03:06:26.485Z,52.23
2019-03-19T03:07:34.178Z,52.38
2019-03-19T03:08:42.071Z,52.37
2019-03-19T03:09:50.461Z,52.40
2019-03-19T03:10:58.872Z,52.42
2019-03-19T03:12:06.982Z,52.59
2019-03-19T03:13:14.853Z,52.39
2019-03-19T03:14:22.774Z,52.60
2019-03-19T03:15:30.435Z,52.68
2019-03-19T03:16:38.311Z,52.88
2019-03-19T03:17:46.304Z,52.70
2019-03-19T03:18:54.322Z,52.63
2019-03-19T03:20:02.530Z,52.62
2019-03-19T03:21:10.296Z,52.64
2019-03-19T03:22:18.268Z,52.84
2019-03-19T03:23:26.293Z,53.07
2019-03-19T03:24:34.245Z,53.29
2019-03-19T03:25:41.870Z,53.15
2019-03-19T03:26:49.766Z,53.12
2019-03-19T03:27:57.409Z,53.31
2019-03-19T03:29:05.674Z,53.25
2019-03-19T03:30:17.773Z,53.24
2019-03-19T03:31:26.016Z,53.38
2019-03-19T03:32:33.806Z,53.52
2019-03-19T03:33:41.563Z,53.39
2019-03-19T03:34:49.536Z,53.69
2019-03-19T03:35:57.504Z,53.92
2019-03-19T03:37:05.722Z,54.13
2019-03-19T03:38:13.570Z,54.16
2019-03-19T03:39:21.354Z,54.16
2019-03-19T03:40:29.328Z,54.41
2019-03-19T03:41:37.425Z,54.37
2019-03-19T03:42:45.876Z,54.79
2019-03-19T03:43:53.689Z,54.68
2019-03-19T03:45:01.578Z,54.92
2019-03-19T03:46:09.765Z,54.97
2019-03-19T03:47:17.605Z,54.62
2019-03-19T03:48:25.754Z,54.76
2019-03-19T03:49:33.511Z,54.68
2019-03-19T03:50:41.437Z,54.58
2019-03-19T03:51:49.670Z,54.50
2019-03-19T03:52:57.664Z,54.46
2019-03-19T03:54:06.108Z,54.51
2019-03-19T03:55:17.077Z,54.30
2019-03-19T03:56:25.016Z,54.28
2019-03-19T03:57:32.987Z,54.19
2019-03-19T03:58:41.083Z,54.17
2019-03-19T03:59:49.290Z,54.14
2019-03-19T04:00:57.277Z,54.13
2019-03-19T04:02:05.781Z,54.07
2019-03-19T04:03:13.879Z,54.14
2019-03-19T04:04:21.734Z,54.13
2019-03-19T04:05:29.435Z,54.00
2019-03-19T04:06:37.325Z,53.69
2019-03-19T04:07:45.219Z,53.61
2019-03-19T04:08:53.137Z,53.64
2019-03-19T04:10:00.942Z,53.34
2019-03-19T04:11:09.014Z,53.50
2019-03-19T04:12:16.612Z,53.39
2019-03-19T04:13:24.521Z,53.55
2019-03-19T04:14:32.254Z,53.56
2019-03-19T04:15:40.135Z,53.62
2019-03-19T04:16:48.017Z,53.54
2019-03-19T04:17:55.901Z,53.46
2019-03-19T04:19:03.917Z,53.52
2019-03-19T04:20:17.250Z,53.78
2019-03-19T04:21:25.190Z,54.01
2019-03-19T04:22:32.971Z,53.90
2019-03-19T04:23:41.059Z,54.02
2019-03-19T04:24:49.093Z,53.91
2019-03-19T04:25:56.876Z,53.83
2019-03-19T04:27:15.340Z,53.99
2019-03-19T04:28:14.521Z,54.01
2019-03-19T04:29:23.310Z,53.95
2019-03-19T04:30:31.109Z,53.80
2019-03-19T04:31:39.089Z,53.86
2019-03-19T04:32:46.840Z,54.15
2019-03-19T04:33:54.742Z,54.67
2019-03-19T04:35:02.963Z,54.69
2019-03-19T04:36:10.760Z,54.75
2019-03-19T04:37:18.754Z,54.66
2019-03-19T04:38:26.833Z,54.52
2019-03-19T04:39:34.592Z,54.59
2019-03-19T04:40:42.533Z,54.69
2019-03-19T04:41:50.291Z,54.76
2019-03-19T04:42:58.205Z,54.69
2019-03-19T04:44:06.419Z,54.76
2019-03-19T04:45:15.946Z,54.80
2019-03-19T04:46:23.873Z,54.86
2019-03-19T04:47:31.664Z,54.83
2019-03-19T04:48:39.407Z,54.64
2019-03-19T04:49:47.410Z,54.47
2019-03-19T04:50:55.508Z,54.28
2019-03-19T04:52:03.383Z,54.15
2019-03-19T04:53:11.250Z,54.07
2019-03-19T04:54:18.935Z,54.15
2019-03-19T04:55:26.859Z,54.28
2019-03-19T04:56:34.591Z,54.39
2019-03-19T04:57:42.393Z,54.39
2019-03-19T04:58:50.332Z,54.44
2019-03-19T04:59:59.037Z,54.50
2019-03-19T05:01:07.663Z,54.49
2019-03-19T05:02:15.667Z,54.63
2019-03-19T05:03:23.399Z,54.72
2019-03-19T05:04:31.125Z,54.85
2019-03-19T05:05:39.029Z,55.03
2019-03-19T05:06:47.001Z,55.16
2019-03-19T05:07:54.933Z,55.11
2019-03-19T05:09:02.890Z,54.95
2019-03-19T05:10:19.211Z,55.15
2019-03-19T05:11:27.194Z,55.41
2019-03-19T05:12:35.288Z,55.45
2019-03-19T05:13:43.132Z,55.34
2019-03-19T05:14:51.107Z,55.31
2019-03-19T05:15:59.745Z,55.31
2019-03-19T05:17:08.123Z,55.22
2019-03-19T05:18:16.126Z,55.15
2019-03-19T05:19:23.959Z,55.11
2019-03-19T05:20:31.844Z,55.08
2019-03-19T05:21:39.944Z,54.91
2019-03-19T05:22:47.747Z,54.98
2019-03-19T05:23:55.765Z,54.85
2019-03-19T05:25:03.827Z,54.70
2019-03-19T05:26:11.875Z,54.69
2019-03-19T05:27:19.943Z,54.73
2019-03-19T05:28:28.138Z,54.50
2019-03-19T05:29:36.230Z,54.35
2019-03-19T05:30:44.003Z,54.23
2019-03-19T05:31:51.645Z,54.06
2019-03-19T05:32:59.674Z,54.09
2019-03-19T05:34:07.698Z,53.98
2019-03-19T05:35:16.104Z,54.03
2019-03-19T05:36:24.114Z,53.90
2019-03-19T05:37:32.061Z,53.76
2019-03-19T05:38:40.084Z,53.63
2019-03-19T05:39:47.873Z,53.68
2019-03-19T05:40:55.887Z,53.60
2019-03-19T05:42:03.698Z,53.27
2019-03-19T05:43:11.672Z,53.19
2019-03-19T05:44:19.752Z,53.42
2019-03-19T05:45:27.848Z,53.89
2019-03-19T05:46:35.746Z,54.30
2019-03-19T05:47:44.246Z,54.25
2019-03-19T05:48:52.552Z,53.97
2019-03-19T05:50:00.645Z,54.10
2019-03-19T05:51:08.514Z,53.84
2019-03-19T05:52:16.535Z,53.24
2019-03-19T05:53:24.287Z,53.37
2019-03-19T05:54:32.725Z,53.57
2019-03-19T05:55:40.553Z,53.81
2019-03-19T05:56:48.407Z,53.68
2019-03-19T05:57:56.271Z,53.61
2019-03-19T05:59:04.230Z,53.60
2019-03-19T06:00:22.527Z,53.57
2019-03-19T06:01:30.349Z,53.63
2019-03-19T06:02:38.292Z,53.54
2019-03-19T06:03:46.395Z,53.40
2019-03-19T06:04:54.223Z,53.39
2019-03-19T06:06:02.130Z,53.21
2019-03-19T06:07:10.512Z,53.02
2019-03-19T06:08:18.704Z,52.89
2019-03-19T06:09:26.723Z,52.66
2019-03-19T06:10:34.689Z,52.79
2019-03-19T06:11:42.823Z,52.77
2019-03-19T06:12:51.381Z,52.81
2019-03-19T06:13:59.439Z,52.84
2019-03-19T06:15:15.295Z,52.51
2019-03-19T06:16:23.505Z,52.41
2019-03-19T06:17:31.547Z,52.41
2019-03-19T06:18:39.595Z,52.27
2019-03-19T06:19:47.456Z,52.03
2019-03-19T06:20:55.412Z,51.99
2019-03-19T06:22:03.435Z,51.83
2019-03-19T06:23:11.420Z,51.79
2019-03-19T06:24:19.382Z,51.91
2019-03-19T06:25:27.748Z,51.80
2019-03-19T06:26:35.482Z,51.70
2019-03-19T06:27:43.834Z,51.77
2019-03-19T06:28:51.909Z,51.60
2019-03-19T06:29:59.983Z,51.68
2019-03-19T06:31:08.063Z,51.54
2019-03-19T06:32:16.535Z,51.35
2019-03-19T06:33:24.455Z,51.18
2019-03-19T06:34:32.750Z,51.07
2019-03-19T06:35:40.962Z,50.78
2019-03-19T06:36:49.127Z,50.56
2019-03-19T06:37:56.937Z,50.63
2019-03-19T06:39:07.656Z,50.94
2019-03-19T06:40:18.178Z,51.20
2019-03-19T06:41:26.633Z,51.44
2019-03-19T06:42:34.566Z,50.79
2019-03-19T06:43:42.562Z,50.93
2019-03-19T06:44:50.803Z,51.11
2019-03-19T06:45:58.813Z,50.87
2019-03-19T06:47:06.909Z,50.90
2019-03-19T06:48:14.890Z,51.01
2019-03-19T06:49:23.310Z,50.79
2019-03-19T06:50:31.704Z,50.63
2019-03-19T06:51:39.657Z,50.44
2019-03-19T06:52:47.911Z,50.64
2019-03-19T06:53:55.977Z,50.37
2019-03-19T06:55:04.915Z,50.08
2019-03-19T06:56:14.812Z,50.28
2019-03-19T06:57:23.106Z,50.18
2019-03-19T06:58:31.146Z,50.23
2019-03-19T06:59:39.339Z,50.14
2019-03-19T07:00:47.437Z,49.75
2019-03-19T07:01:55.346Z,49.66
2019-03-19T07:03:03.647Z,49.53
2019-03-19T07:04:11.835Z,49.46
2019-03-19T07:05:20.848Z,49.73
2019-03-19T07:06:28.902Z,50.11
2019-03-19T07:07:36.948Z,50.21
2019-03-19T07:08:44.867Z,50.22
2019-03-19T07:09:53.033Z,50.02
2019-03-19T07:11:00.971Z,49.44
2019-03-19T07:12:09.372Z,49.51
2019-03-19T07:13:17.533Z,49.37
2019-03-19T07:14:25.729Z,48.99
2019-03-19T07:15:34.030Z,49.21
2019-03-19T07:16:42.298Z,49.43
2019-03-19T07:17:50.238Z,49.42
2019-03-19T07:18:58.065Z,49.44
2019-03-19T07:20:18.404Z,49.34
2019-03-19T07:21:26.393Z,49.63
2019-03-19T07:22:34.596Z,49.38
2019-03-19T07:23:42.523Z,49.37
2019-03-19T07:24:50.443Z,49.20
2019-03-19T07:25:58.699Z,49.47
2019-03-19T07:27:06.783Z,49.78
2019-03-19T07:28:22.075Z,49.75
2019-03-19T07:29:24.456Z,49.76
2019-03-19T07:30:32.810Z,49.82
2019-03-19T07:31:40.736Z,49.96
2019-03-19T07:32:48.700Z,49.86
2019-03-19T07:33:56.602Z,49.41
2019-03-19T07:35:05.101Z,49.80
2019-03-19T07:36:13.234Z,49.46
2019-03-19T07:37:21.075Z,49.47
2019-03-19T07:38:29.075Z,49.60
2019-03-19T07:39:36.953Z,49.36
2019-03-19T07:40:44.947Z,49.32
2019-03-19T07:41:53.979Z,49.35
2019-03-19T07:43:02.177Z,49.50
2019-03-19T07:44:10.378Z,49.56
2019-03-19T07:45:23.443Z,49.77
2019-03-19T07:46:31.482Z,49.78
2019-03-19T07:47:39.792Z,49.99
2019-03-19T07:48:47.627Z,49.43
2019-03-19T07:49:55.616Z,49.19
2019-03-19T07:51:03.816Z,49.11
2019-03-19T07:52:11.860Z,49.05
2019-03-19T07:53:19.836Z,49.02
2019-03-19T07:54:27.960Z,49.02
2019-03-19T07:55:36.000Z,48.80
2019-03-19T07:56:43.991Z,48.98
2019-03-19T07:57:52.085Z,48.29
2019-03-19T07:59:00.417Z,48.15
2019-03-19T08:00:16.795Z,48.28
2019-03-19T08:01:24.876Z,47.69
2019-03-19T08:02:32.967Z,47.33
2019-03-19T08:03:41.105Z,47.64
2019-03-19T08:04:49.319Z,46.86
2019-03-19T08:05:57.244Z,46.93
2019-03-19T08:07:05.554Z,46.67
2019-03-19T08:08:13.482Z,46.30
2019-03-19T08:09:21.711Z,45.95
2019-03-19T08:10:29.703Z,46.23
2019-03-19T08:11:37.542Z,45.89
2019-03-19T08:12:45.735Z,45.07
2019-03-19T08:13:53.609Z,45.13
2019-03-19T08:15:01.491Z,44.67
2019-03-19T08:16:09.703Z,44.81
2019-03-19T08:17:17.591Z,44.69
2019-03-19T08:18:25.680Z,45.14
2019-03-19T08:19:33.699Z,45.34
2019-03-19T08:20:41.671Z,45.49
2019-03-19T08:21:49.762Z,45.12
2019-03-19T08:22:57.658Z,43.82
2019-03-19T08:24:05.608Z,44.33
2019-03-19T08:25:14.801Z,43.72
2019-03-19T08:26:22.620Z,43.62
2019-03-19T08:27:30.726Z,43.69
2019-03-19T08:28:38.744Z,43.75
2019-03-19T08:29:46.850Z,44.13
2019-03-19T08:30:54.726Z,43.72
2019-03-19T08:32:02.729Z,43.81
2019-03-19T08:33:10.651Z,43.78
2019-03-19T08:34:18.557Z,43.75
2019-03-19T08:35:26.626Z,43.34
2019-03-19T08:36:34.615Z,43.41
2019-03-19T08:37:42.813Z,43.42
2019-03-19T08:38:50.682Z,43.57
2019-03-19T08:39:58.811Z,43.75
2019-03-19T08:41:07.019Z,43.84
2019-03-19T08:42:15.102Z,43.88
2019-03-19T08:43:23.147Z,43.75
2019-03-19T08:44:31.111Z,44.06
2019-03-19T08:45:39.102Z,43.93
2019-03-19T08:46:46.957Z,43.55
2019-03-19T08:47:55.032Z,43.71
2019-03-19T08:49:03.073Z,43.94
2019-03-19T08:50:24.531Z,43.84
2019-03-19T08:51:32.518Z,44.10
2019-03-19T08:52:40.805Z,43.92
2019-03-19T08:53:48.870Z,43.67
2019-03-19T08:54:57.177Z,43.45
2019-03-19T08:56:05.060Z,43.53
2019-03-19T08:57:13.075Z,42.96
2019-03-19T08:58:21.050Z,42.32
2019-03-19T08:59:29.254Z,42.33
2019-03-19T09:00:37.223Z,42.29
2019-03-19T09:01:47.220Z,41.95
2019-03-19T09:02:54.680Z,41.97
2019-03-19T09:04:02.511Z,41.32
2019-03-19T09:05:11.283Z,41.54
2019-03-19T09:06:19.228Z,41.32
2019-03-19T09:07:27.223Z,41.01
2019-03-19T09:08:34.912Z,40.84
2019-03-19T09:09:42.826Z,41.06
2019-03-19T09:10:50.839Z,41.08
2019-03-19T09:11:58.924Z,41.23
2019-03-19T09:13:06.754Z,41.72
2019-03-19T09:14:14.576Z,41.50
2019-03-19T09:15:29.950Z,41.65
2019-03-19T09:16:37.628Z,41.36
2019-03-19T09:17:45.868Z,40.95
2019-03-19T09:18:53.849Z,41.30
2019-03-19T09:20:01.846Z,41.68
2019-03-19T09:21:10.077Z,41.61
2019-03-19T09:22:18.036Z,41.70
2019-03-19T09:23:26.359Z,41.73
2019-03-19T09:24:34.253Z,41.66
2019-03-19T09:25:42.337Z,41.76
2019-03-19T09:26:50.181Z,41.66
2019-03-19T09:27:58.017Z,41.92
2019-03-19T09:29:16.071Z,42.29
2019-03-19T09:30:24.677Z,41.89
2019-03-19T09:31:33.016Z,41.28
2019-03-19T09:32:40.762Z,41.45
2019-03-19T09:33:48.698Z,41.61
2019-03-19T09:34:56.731Z,41.21
2019-03-19T09:36:04.584Z,41.20
2019-03-19T09:37:12.541Z,41.27
2019-03-19T09:38:20.511Z,41.31
2019-03-19T09:39:28.306Z,41.18
2019-03-19T09:40:36.656Z,40.57
2019-03-19T09:41:44.787Z,40.65
2019-03-19T09:42:52.912Z,41.15
2019-03-19T09:44:00.993Z,41.48
2019-03-19T09:45:11.485Z,41.59
2019-03-19T09:46:19.499Z,41.69
2019-03-19T09:47:27.886Z,41.78
2019-03-19T09:48:35.818Z,41.89
2019-03-19T09:49:43.834Z,42.02
2019-03-19T09:50:51.824Z,41.72
2019-03-19T09:52:00.038Z,41.58
2019-03-19T09:53:08.215Z,40.30
2019-03-19T09:54:16.221Z,39.25
2019-03-19T09:55:24.699Z,39.13
2019-03-19T09:56:32.995Z,39.61
2019-03-19T09:57:41.122Z,40.36
2019-03-19T09:58:49.044Z,40.25
2019-03-19T09:59:56.754Z,40.22
2019-03-19T10:01:04.703Z,40.42
2019-03-19T10:02:12.530Z,39.71
2019-03-19T10:03:20.491Z,39.75
2019-03-19T10:04:28.310Z,39.41
2019-03-19T10:05:36.234Z,39.10
2019-03-19T10:06:44.149Z,39.40
2019-03-19T10:07:52.325Z,39.50
2019-03-19T10:09:00.136Z,39.83
2019-03-19T10:10:17.169Z,39.56
2019-03-19T10:11:24.911Z,38.81
2019-03-19T10:12:33.074Z,38.25
2019-03-19T10:13:41.241Z,37.35
2019-03-19T10:14:49.046Z,37.34
2019-03-19T10:15:58.488Z,37.15
2019-03-19T10:17:06.687Z,36.83
2019-03-19T10:18:14.536Z,36.96
2019-03-19T10:19:22.522Z,36.43
2019-03-19T10:20:30.668Z,36.78
2019-03-19T10:21:39.129Z,37.23
2019-03-19T10:22:47.492Z,37.45
2019-03-19T10:23:55.779Z,35.91
2019-03-19T10:25:05.004Z,35.17
2019-03-19T10:26:13.620Z,35.55
2019-03-19T10:27:21.745Z,35.84
2019-03-19T10:28:29.862Z,36.24
2019-03-19T10:29:38.682Z,36.06
2019-03-19T10:30:47.029Z,34.68
2019-03-19T10:31:55.017Z,34.38
2019-03-19T10:33:03.118Z,33.10
2019-03-19T10:34:11.163Z,33.59
2019-03-19T10:35:19.520Z,32.83
2019-03-19T10:36:27.521Z,33.23
2019-03-19T10:37:35.535Z,33.66
2019-03-19T10:38:43.409Z,32.47
2019-03-19T10:39:51.466Z,32.26
2019-03-19T10:40:59.386Z,32.17
2019-03-19T10:42:07.640Z,32.01
2019-03-19T10:43:15.686Z,31.72
2019-03-19T10:44:23.503Z,31.27
2019-03-19T10:45:32.130Z,31.16
2019-03-19T10:46:40.111Z,30.86
2019-03-19T10:47:49.495Z,30.89
2019-03-19T10:48:57.509Z,30.47
2019-03-19T10:50:15.125Z,30.55
2019-03-19T10:51:23.159Z,31.24
2019-03-19T10:52:31.425Z,31.85
2019-03-19T10:53:39.150Z,32.17
2019-03-19T10:54:47.549Z,32.53
2019-03-19T10:55:55.393Z,32.79
2019-03-19T10:57:03.336Z,33.08
2019-03-19T10:58:11.572Z,33.25
2019-03-19T10:59:19.660Z,33.43
2019-03-19T11:00:28.541Z,34.00
2019-03-19T11:01:36.908Z,34.41
2019-03-19T11:02:45.092Z,34.58
2019-03-19T11:03:52.984Z,34.69
2019-03-19T11:05:00.755Z,34.87
2019-03-19T11:06:09.072Z,35.17
2019-03-19T11:07:17.188Z,35.05
2019-03-19T11:08:25.204Z,35.39
2019-03-19T11:09:33.182Z,35.17
2019-03-19T11:10:41.157Z,35.13
2019-03-19T11:11:49.149Z,35.00
2019-03-19T11:12:57.308Z,35.24
2019-03-19T11:14:05.171Z,35.38
2019-03-19T11:15:28.103Z,35.13
2019-03-19T11:16:36.893Z,35.08
2019-03-19T11:17:45.004Z,33.96
2019-03-19T11:18:52.801Z,33.82
2019-03-19T11:20:00.794Z,33.34
2019-03-19T11:21:09.040Z,33.10
2019-03-19T11:22:17.802Z,32.97
2019-03-19T11:23:25.803Z,32.80
2019-03-19T11:24:33.757Z,32.55
2019-03-19T11:25:41.513Z,31.93
2019-03-19T11:26:50.084Z,32.25
2019-03-19T11:27:58.266Z,32.21
2019-03-19T11:29:06.259Z,32.69
2019-03-19T11:30:23.600Z,31.84
2019-03-19T11:31:31.785Z,31.52
2019-03-19T11:32:39.764Z,30.94
2019-03-19T11:33:47.875Z,31.06
2019-03-19T11:34:55.692Z,30.84
2019-03-19T11:36:03.602Z,30.40
2019-03-19T11:37:11.336Z,29.52
2019-03-19T11:38:19.177Z,29.12
2019-03-19T11:39:27.132Z,29.89
2019-03-19T11:40:35.037Z,29.90
2019-03-19T11:41:42.983Z,30.28
2019-03-19T11:42:51.925Z,30.59
2019-03-19T11:43:59.691Z,30.30
2019-03-19T11:45:11.345Z,30.35
2019-03-19T11:46:19.360Z,30.38
2019-03-19T11:47:27.752Z,30.37
2019-03-19T11:48:35.580Z,30.19
2019-03-19T11:49:43.444Z,29.81
2019-03-19T11:50:51.050Z,29.75
2019-03-19T11:51:59.172Z,29.89
2019-03-19T11:53:07.324Z,29.29
2019-03-19T11:54:15.256Z,29.61
2019-03-19T11:55:23.194Z,30.15
2019-03-19T11:56:31.249Z,30.07
2019-03-19T11:57:39.319Z,30.42
2019-03-19T11:58:47.222Z,30.69
2019-03-19T11:59:55.043Z,31.04
2019-03-19T12:01:04.355Z,31.20
2019-03-19T12:02:12.439Z,32.15
2019-03-19T12:03:20.565Z,32.62
2019-03-19T12:04:28.541Z,33.40
2019-03-19T12:05:36.610Z,33.55
2019-03-19T12:06:44.837Z,33.73
2019-03-19T12:07:52.730Z,34.20
2019-03-19T12:09:00.590Z,34.28
2019-03-19T12:10:09.251Z,34.38
2019-03-19T12:11:17.128Z,34.79
2019-03-19T12:12:25.068Z,34.76
2019-03-19T12:13:33.236Z,34.83
2019-03-19T12:14:41.204Z,34.80
2019-03-19T12:15:49.406Z,34.93
2019-03-19T12:16:57.659Z,35.12
2019-03-19T12:18:06.371Z,35.40
2019-03-19T12:19:14.379Z,35.33
2019-03-19T12:20:22.256Z,35.59
2019-03-19T12:21:30.214Z,35.65
2019-03-19T12:22:38.099Z,35.74
2019-03-19T12:23:46.086Z,35.71
2019-03-19T12:24:54.286Z,35.52
2019-03-19T12:26:02.055Z,35.56
2019-03-19T12:27:10.059Z,35.53
2019-03-19T12:28:17.979Z,35.28
2019-03-19T12:29:26.394Z,34.97
2019-03-19T12:30:34.863Z,34.87
2019-03-19T12:31:42.651Z,34.72
2019-03-19T12:32:50.749Z,34.50
2019-03-19T12:33:58.757Z,34.53
2019-03-19T12:35:10.108Z,33.93
2019-03-19T12:36:18.019Z,33.43
2019-03-19T12:37:25.976Z,32.78
2019-03-19T12:38:34.539Z,32.08
2019-03-19T12:39:42.628Z,31.75
2019-03-19T12:40:51.131Z,31.40
2019-03-19T12:41:59.387Z,31.26
2019-03-19T12:43:07.604Z,31.52
2019-03-19T12:44:15.608Z,31.38
2019-03-19T12:45:24.862Z,31.49
2019-03-19T12:46:32.890Z,31.62
2019-03-19T12:47:40.953Z,31.62
2019-03-19T12:48:48.807Z,31.74
2019-03-19T12:49:56.995Z,31.96
2019-03-19T12:51:04.729Z,31.96
2019-03-19T12:52:12.918Z,32.12
2019-03-19T12:53:20.973Z,32.35
2019-03-19T12:54:29.181Z,32.42
2019-03-19T12:55:37.026Z,32.66
2019-03-19T12:56:45.000Z,32.53
2019-03-19T12:57:53.099Z,32.74
2019-03-19T12:59:01.198Z,32.75
2019-03-19T13:00:21.338Z,33.05
2019-03-19T13:01:29.425Z,33.12
2019-03-19T13:02:37.568Z,33.45
2019-03-19T13:03:45.673Z,33.57
2019-03-19T13:04:53.762Z,33.75
2019-03-19T13:06:01.858Z,33.94
2019-03-19T13:07:09.980Z,34.02
2019-03-19T13:08:20.225Z,34.04
2019-03-19T13:09:27.429Z,34.06
2019-03-19T13:10:35.684Z,33.56
2019-03-19T13:11:43.693Z,33.75
2019-03-19T13:12:51.666Z,33.47
2019-03-19T13:13:59.665Z,32.74
2019-03-19T13:15:11.407Z,32.51
2019-03-19T13:16:19.339Z,32.81
2019-03-19T13:17:27.244Z,31.01
2019-03-19T13:18:36.346Z,31.35
2019-03-19T13:19:44.096Z,31.29
2019-03-19T13:20:53.625Z,30.89
2019-03-19T13:22:01.662Z,30.36
2019-03-19T13:23:09.559Z,29.97
2019-03-19T13:24:20.063Z,29.63
2019-03-19T13:25:28.545Z,29.34
2019-03-19T13:26:36.387Z,29.16
2019-03-19T13:27:44.707Z,29.35
2019-03-19T13:28:52.964Z,29.19
2019-03-19T13:30:00.907Z,28.98
2019-03-19T13:31:08.896Z,29.06
2019-03-19T13:32:16.757Z,29.30
2019-03-19T13:33:24.851Z,29.20
2019-03-19T13:34:33.197Z,29.25
2019-03-19T13:35:41.282Z,29.19
2019-03-19T13:36:49.156Z,29.12
2019-03-19T13:37:57.017Z,28.79
2019-03-19T13:39:07.217Z,28.95
2019-03-19T13:40:18.432Z,28.15
2019-03-19T13:41:26.684Z,28.23
2019-03-19T13:42:34.747Z,28.47
2019-03-19T13:43:42.982Z,28.60
2019-03-19T13:44:50.923Z,29.19
2019-03-19T13:45:59.359Z,29.19
2019-03-19T13:47:07.378Z,29.36
2019-03-19T13:48:15.257Z,29.52
2019-03-19T13:49:23.166Z,29.08
2019-03-19T13:50:31.322Z,28.89
2019-03-19T13:51:39.790Z,28.81
2019-03-19T13:52:47.929Z,28.64
2019-03-19T13:53:55.712Z,29.00
2019-03-19T13:55:04.148Z,28.98
2019-03-19T13:56:12.258Z,28.95
2019-03-19T13:57:20.267Z,28.93
2019-03-19T13:58:28.249Z,28.33
2019-03-19T13:59:36.457Z,28.50
2019-03-19T14:00:55.141Z,28.55
2019-03-19T14:01:54.251Z,28.59
2019-03-19T14:03:02.375Z,28.65
2019-03-19T14:04:10.463Z,28.62
2019-03-19T14:05:19.149Z,28.63
2019-03-19T14:06:27.081Z,28.50
2019-03-19T14:07:35.161Z,28.40
2019-03-19T14:08:42.914Z,28.52
2019-03-19T14:09:50.726Z,28.57
2019-03-19T14:10:58.595Z,28.63
2019-03-19T14:12:06.650Z,28.76
2019-03-19T14:13:14.700Z,29.03
2019-03-19T14:14:22.769Z,29.31
2019-03-19T14:15:30.749Z,29.19
2019-03-19T14:16:38.602Z,29.22
2019-03-19T14:17:46.384Z,29.38
2019-03-19T14:18:54.343Z,29.69
2019-03-19T14:20:02.683Z,29.84
2019-03-19T14:21:11.317Z,30.02
2019-03-19T14:22:19.406Z,30.17
2019-03-19T14:23:27.187Z,29.72
2019-03-19T14:24:35.232Z,29.63
2019-03-19T14:25:43.165Z,29.66
2019-03-19T14:26:51.227Z,29.67
2019-03-19T14:27:59.197Z,29.93
2019-03-19T14:29:07.169Z,30.13
2019-03-19T14:30:20.176Z,30.12
2019-03-19T14:31:28.101Z,30.21
2019-03-19T14:32:36.364Z,29.84
2019-03-19T14:33:44.336Z,29.80
2019-03-19T14:34:52.355Z,29.58
2019-03-19T14:36:00.138Z,29.70
2019-03-19T14:37:08.366Z,29.69
2019-03-19T14:38:16.593Z,29.92
2019-03-19T14:39:24.432Z,29.92